sensor_id;sensor_type;location;lat;lon;timestamp;pressure;altitude;pressure_sealevel;temperature;humidity
47366;BME280;33105;47.964;7.982;2023-09-07T00:00:58;96945.44;;;16.95;79.87
47366;BME280;33105;47.964;7.982;2023-09-07T00:03:59;96943.34;;;16.87;80.17
47366;BME280;33105;47.964;7.982;2023-09-07T00:07:00;96951.03;;;16.90;79.45
47366;BME280;33105;47.964;7.982;2023-09-07T00:10:02;96952.19;;;16.84;79.92
47366;BME280;33105;47.964;7.982;2023-09-07T00:13:04;96952.19;;;16.84;79.98
47366;BME280;33105;47.964;7.982;2023-09-07T00:16:05;96951.19;;;16.80;80.12
47366;BME280;33105;47.964;7.982;2023-09-07T00:19:06;96940.06;;;16.85;79.37
47366;BME280;33105;47.964;7.982;2023-09-07T00:22:07;96937.97;;;16.77;79.89
47366;BME280;33105;47.964;7.982;2023-09-07T00:25:10;96939.38;;;16.75;80.24
47366;BME280;33105;47.964;7.982;2023-09-07T00:28:11;96932.81;;;16.71;79.96
47366;BME280;33105;47.964;7.982;2023-09-07T00:31:12;96939.16;;;16.71;79.87
47366;BME280;33105;47.964;7.982;2023-09-07T00:34:14;96935.06;;;16.69;79.89
47366;BME280;33105;47.964;7.982;2023-09-07T00:37:15;96937.28;;;16.66;80.81
47366;BME280;33105;47.964;7.982;2023-09-07T00:40:16;96940.66;;;16.58;80.05
47366;BME280;33105;47.964;7.982;2023-09-07T00:43:17;96938.81;;;16.54;80.04
47366;BME280;33105;47.964;7.982;2023-09-07T00:46:19;96932.25;;;16.50;80.52
47366;BME280;33105;47.964;7.982;2023-09-07T00:49:22;96933.41;;;16.44;80.67
47366;BME280;33105;47.964;7.982;2023-09-07T00:52:24;96925.72;;;16.41;80.72
47366;BME280;33105;47.964;7.982;2023-09-07T00:55:27;96933.75;;;16.37;81.05
47366;BME280;33105;47.964;7.982;2023-09-07T00:58:28;96938.84;;;16.30;82.04
47366;BME280;33105;47.964;7.982;2023-09-07T01:01:30;96939.66;;;16.30;81.67
47366;BME280;33105;47.964;7.982;2023-09-07T01:04:32;96942.22;;;16.22;81.67
47366;BME280;33105;47.964;7.982;2023-09-07T01:07:41;96939.47;;;16.22;81.82
47366;BME280;33105;47.964;7.982;2023-09-07T01:10:44;96935.31;;;16.01;82.13
47366;BME280;33105;47.964;7.982;2023-09-07T01:13:45;96933.38;;;16.01;82.56
47366;BME280;33105;47.964;7.982;2023-09-07T01:16:46;96933.63;;;16.05;82.45
47366;BME280;33105;47.964;7.982;2023-09-07T01:19:48;96925.59;;;16.08;82.46
47366;BME280;33105;47.964;7.982;2023-09-07T01:22:51;96929.22;;;16.04;81.96
47366;BME280;33105;47.964;7.982;2023-09-07T01:25:53;96927.28;;;16.04;82.29
47366;BME280;33105;47.964;7.982;2023-09-07T01:28:56;96922.41;;;15.96;82.53
47366;BME280;33105;47.964;7.982;2023-09-07T01:31:57;96918.00;;;15.95;82.54
47366;BME280;33105;47.964;7.982;2023-09-07T01:34:59;96911.97;;;15.93;82.40
47366;BME280;33105;47.964;7.982;2023-09-07T01:38:01;96908.63;;;15.96;82.14
47366;BME280;33105;47.964;7.982;2023-09-07T01:41:03;96915.31;;;15.90;81.95
47366;BME280;33105;47.964;7.982;2023-09-07T01:44:04;96911.56;;;15.81;82.59
47366;BME280;33105;47.964;7.982;2023-09-07T01:47:06;96911.44;;;15.91;82.00
47366;BME280;33105;47.964;7.982;2023-09-07T01:50:07;96911.72;;;15.89;82.81
47366;BME280;33105;47.964;7.982;2023-09-07T01:53:08;96919.75;;;15.86;82.49
47366;BME280;33105;47.964;7.982;2023-09-07T01:56:10;96909.25;;;15.88;82.38
47366;BME280;33105;47.964;7.982;2023-09-07T01:59:11;96914.84;;;15.83;81.97
47366;BME280;33105;47.964;7.982;2023-09-07T02:02:12;96911.31;;;15.77;82.45
47366;BME280;33105;47.964;7.982;2023-09-07T02:05:14;96905.56;;;15.74;82.87
47366;BME280;33105;47.964;7.982;2023-09-07T02:08:15;96916.06;;;15.72;82.74
47366;BME280;33105;47.964;7.982;2023-09-07T02:11:16;96912.19;;;15.73;83.05
47366;BME280;33105;47.964;7.982;2023-09-07T02:14:17;96908.19;;;15.84;82.60
47366;BME280;33105;47.964;7.982;2023-09-07T02:17:18;96911.19;;;15.87;81.90
47366;BME280;33105;47.964;7.982;2023-09-07T02:20:20;96907.97;;;15.80;82.25
47366;BME280;33105;47.964;7.982;2023-09-07T02:23:21;96902.91;;;15.63;82.07
47366;BME280;33105;47.964;7.982;2023-09-07T02:26:22;96909.13;;;15.74;83.35
47366;BME280;33105;47.964;7.982;2023-09-07T02:29:24;96911.56;;;15.81;82.25
47366;BME280;33105;47.964;7.982;2023-09-07T02:32:25;96910.16;;;15.83;82.13
47366;BME280;33105;47.964;7.982;2023-09-07T02:35:26;96908.41;;;15.63;82.65
47366;BME280;33105;47.964;7.982;2023-09-07T02:38:27;96913.63;;;15.65;82.76
47366;BME280;33105;47.964;7.982;2023-09-07T02:41:30;96896.81;;;15.67;82.58
47366;BME280;33105;47.964;7.982;2023-09-07T02:44:32;96913.38;;;15.61;82.54
47366;BME280;33105;47.964;7.982;2023-09-07T02:47:33;96903.25;;;15.57;82.71
47366;BME280;33105;47.964;7.982;2023-09-07T02:50:35;96908.78;;;15.52;83.20
47366;BME280;33105;47.964;7.982;2023-09-07T02:53:36;96902.50;;;15.46;83.38
47366;BME280;33105;47.964;7.982;2023-09-07T02:56:38;96908.63;;;15.38;83.72
47366;BME280;33105;47.964;7.982;2023-09-07T02:59:39;96906.94;;;15.42;83.54
47366;BME280;33105;47.964;7.982;2023-09-07T03:02:40;96909.66;;;15.47;82.96
47366;BME280;33105;47.964;7.982;2023-09-07T03:05:42;96896.13;;;15.51;82.96
47366;BME280;33105;47.964;7.982;2023-09-07T03:08:44;96906.94;;;15.42;83.13
47366;BME280;33105;47.964;7.982;2023-09-07T03:11:45;96901.19;;;15.39;83.69
47366;BME280;33105;47.964;7.982;2023-09-07T03:14:47;96908.69;;;15.33;83.50
47366;BME280;33105;47.964;7.982;2023-09-07T03:17:50;96901.44;;;15.42;83.75
47366;BME280;33105;47.964;7.982;2023-09-07T03:20:53;96900.84;;;15.45;83.34
47366;BME280;33105;47.964;7.982;2023-09-07T03:23:56;96892.63;;;15.40;83.26
47366;BME280;33105;47.964;7.982;2023-09-07T03:26:58;96900.59;;;15.42;82.99
47366;BME280;33105;47.964;7.982;2023-09-07T03:30:01;96895.44;;;15.35;82.85
47366;BME280;33105;47.964;7.982;2023-09-07T03:33:02;96894.31;;;15.36;82.96
47366;BME280;33105;47.964;7.982;2023-09-07T03:36:04;96899.22;;;15.44;82.60
47366;BME280;33105;47.964;7.982;2023-09-07T03:39:06;96898.13;;;15.40;82.64
47366;BME280;33105;47.964;7.982;2023-09-07T03:42:09;96897.06;;;15.36;83.00
47366;BME280;33105;47.964;7.982;2023-09-07T03:45:10;96908.06;;;15.36;83.25
47366;BME280;33105;47.964;7.982;2023-09-07T03:48:12;96905.88;;;15.38;82.79
47366;BME280;33105;47.964;7.982;2023-09-07T03:51:14;96903.41;;;15.37;83.32
47366;BME280;33105;47.964;7.982;2023-09-07T03:54:15;96899.59;;;15.32;83.31
47366;BME280;33105;47.964;7.982;2023-09-07T03:57:17;96908.31;;;15.40;82.27
47366;BME280;33105;47.964;7.982;2023-09-07T04:00:18;96900.84;;;15.45;81.88
47366;BME280;33105;47.964;7.982;2023-09-07T04:03:22;96903.06;;;15.43;81.81
47366;BME280;33105;47.964;7.982;2023-09-07T04:06:23;96911.38;;;15.38;82.49
47366;BME280;33105;47.964;7.982;2023-09-07T04:09:25;96911.91;;;15.40;82.65
47366;BME280;33105;47.964;7.982;2023-09-07T04:12:26;96909.16;;;15.40;82.71
47366;BME280;33105;47.964;7.982;2023-09-07T04:15:27;96917.38;;;15.45;82.35
47366;BME280;33105;47.964;7.982;2023-09-07T04:18:29;96908.91;;;15.37;82.49
47366;BME280;33105;47.964;7.982;2023-09-07T04:21:31;96906.22;;;15.31;82.98
47366;BME280;33105;47.964;7.982;2023-09-07T04:24:33;96908.91;;;15.37;82.14
47366;BME280;33105;47.964;7.982;2023-09-07T04:27:36;96913.75;;;15.50;79.87
47366;BME280;33105;47.964;7.982;2023-09-07T04:30:38;96909.59;;;15.52;80.56
47366;BME280;33105;47.964;7.982;2023-09-07T04:33:39;96912.66;;;15.51;80.49
47366;BME280;33105;47.964;7.982;2023-09-07T04:36:41;96913.72;;;15.55;80.65
47366;BME280;33105;47.964;7.982;2023-09-07T04:39:42;96914.53;;;15.55;80.60
47366;BME280;33105;47.964;7.982;2023-09-07T04:42:43;96904.91;;;15.58;79.79
47366;BME280;33105;47.964;7.982;2023-09-07T04:45:48;96910.81;;;15.70;78.97
47366;BME280;33105;47.964;7.982;2023-09-07T04:48:49;96913.72;;;15.55;79.96
47366;BME280;33105;47.964;7.982;2023-09-07T04:51:53;96911.66;;;15.71;78.94
47366;BME280;33105;47.964;7.982;2023-09-07T04:54:54;96907.22;;;15.75;78.27
47366;BME280;33105;47.964;7.982;2023-09-07T04:57:56;96912.31;;;15.86;78.08
47366;BME280;33105;47.964;7.982;2023-09-07T05:01:05;96922.88;;;16.03;76.96
47366;BME280;33105;47.964;7.982;2023-09-07T05:04:06;96911.28;;;16.06;75.56
47366;BME280;33105;47.964;7.982;2023-09-07T05:07:07;96912.44;;;16.24;75.89
47366;BME280;33105;47.964;7.982;2023-09-07T05:10:09;96914.97;;;16.20;76.07
47366;BME280;33105;47.964;7.982;2023-09-07T05:13:13;96919.25;;;16.08;78.06
47366;BME280;33105;47.964;7.982;2023-09-07T05:16:14;96918.25;;;15.98;79.04
47366;BME280;33105;47.964;7.982;2023-09-07T05:19:16;96918.28;;;15.93;78.17
47366;BME280;33105;47.964;7.982;2023-09-07T05:22:18;96925.41;;;15.99;77.87
47366;BME280;33105;47.964;7.982;2023-09-07T05:25:22;96921.81;;;15.99;79.28
47366;BME280;33105;47.964;7.982;2023-09-07T05:28:23;96931.59;;;15.86;79.47
47366;BME280;33105;47.964;7.982;2023-09-07T05:31:26;96935.28;;;15.77;80.33
47366;BME280;33105;47.964;7.982;2023-09-07T05:34:28;96937.56;;;15.70;80.50
47366;BME280;33105;47.964;7.982;2023-09-07T05:37:31;96931.72;;;15.76;81.24
47366;BME280;33105;47.964;7.982;2023-09-07T05:40:40;96934.19;;;15.78;81.03
47366;BME280;33105;47.964;7.982;2023-09-07T05:43:42;96937.03;;;15.68;82.70
47366;BME280;33105;47.964;7.982;2023-09-07T05:46:43;96938.31;;;15.75;82.25
47366;BME280;33105;47.964;7.982;2023-09-07T05:49:44;96943.88;;;15.70;81.68
47366;BME280;33105;47.964;7.982;2023-09-07T05:52:45;96937.88;;;15.92;81.03
47366;BME280;33105;47.964;7.982;2023-09-07T05:55:47;96942.31;;;15.88;82.01
47366;BME280;33105;47.964;7.982;2023-09-07T05:58:48;96938.03;;;15.77;83.35
47366;BME280;33105;47.964;7.982;2023-09-07T06:01:49;96936.69;;;15.74;83.04
47366;BME280;33105;47.964;7.982;2023-09-07T06:04:50;96942.91;;;15.85;82.95
47366;BME280;33105;47.964;7.982;2023-09-07T06:07:52;96947.94;;;15.78;83.25
47366;BME280;33105;47.964;7.982;2023-09-07T06:10:53;96943.44;;;15.87;83.55
47366;BME280;33105;47.964;7.982;2023-09-07T06:13:54;96936.72;;;15.98;81.81
47366;BME280;33105;47.964;7.982;2023-09-07T06:16:58;96933.91;;;16.03;81.79
47366;BME280;33105;47.964;7.982;2023-09-07T06:19:59;96929.16;;;16.32;79.42
47366;BME280;33105;47.964;7.982;2023-09-07T06:23:01;96927.81;;;16.30;81.21
47366;BME280;33105;47.964;7.982;2023-09-07T06:26:02;96931.41;;;16.49;80.49
47366;BME280;33105;47.964;7.982;2023-09-07T06:29:04;96924.84;;;16.45;81.80
47366;BME280;33105;47.964;7.982;2023-09-07T06:32:05;96931.19;;;16.46;82.56
47366;BME280;33105;47.964;7.982;2023-09-07T06:35:06;96920.84;;;16.80;79.88
47366;BME280;33105;47.964;7.982;2023-09-07T06:38:08;96924.47;;;16.76;82.21
47366;BME280;33105;47.964;7.982;2023-09-07T06:41:09;96926.13;;;16.77;82.97
47366;BME280;33105;47.964;7.982;2023-09-07T06:44:11;96927.91;;;16.86;82.60
47366;BME280;33105;47.964;7.982;2023-09-07T06:47:12;96930.78;;;17.14;81.50
47366;BME280;33105;47.964;7.982;2023-09-07T06:50:14;96925.72;;;17.21;82.65
47366;BME280;33105;47.964;7.982;2023-09-07T06:53:15;96929.72;;;17.47;81.33
47366;BME280;33105;47.964;7.982;2023-09-07T06:56:17;96934.19;;;17.43;82.12
47366;BME280;33105;47.964;7.982;2023-09-07T06:59:18;96933.72;;;17.74;77.86
47366;BME280;33105;47.964;7.982;2023-09-07T07:02:19;96933.97;;;18.05;77.01
47366;BME280;33105;47.964;7.982;2023-09-07T07:05:20;96939.69;;;17.94;80.34
47366;BME280;33105;47.964;7.982;2023-09-07T07:08:23;96939.06;;;17.97;82.13
47366;BME280;33105;47.964;7.982;2023-09-07T07:11:25;96936.00;;;17.99;83.33
47366;BME280;33105;47.964;7.982;2023-09-07T07:14:26;96927.84;;;18.21;81.21
47366;BME280;33105;47.964;7.982;2023-09-07T07:17:27;96931.31;;;18.41;79.98
47366;BME280;33105;47.964;7.982;2023-09-07T07:20:29;96936.03;;;18.40;80.37
47366;BME280;33105;47.964;7.982;2023-09-07T07:23:30;96928.97;;;18.61;76.48
47366;BME280;33105;47.964;7.982;2023-09-07T07:26:32;96935.84;;;18.64;80.31
47366;BME280;33105;47.964;7.982;2023-09-07T07:29:34;96938.09;;;18.76;83.19
47366;BME280;33105;47.964;7.982;2023-09-07T07:32:36;96938.03;;;18.89;81.81
47366;BME280;33105;47.964;7.982;2023-09-07T07:35:38;96941.44;;;18.86;84.61
47366;BME280;33105;47.964;7.982;2023-09-07T07:38:40;96942.38;;;18.68;81.94
47366;BME280;33105;47.964;7.982;2023-09-07T07:41:42;96933.31;;;18.90;86.57
47366;BME280;33105;47.964;7.982;2023-09-07T07:44:43;96940.72;;;18.94;85.82
47366;BME280;33105;47.964;7.982;2023-09-07T07:47:45;96937.00;;;18.99;84.70
47366;BME280;33105;47.964;7.982;2023-09-07T07:50:46;96938.84;;;19.03;85.04
47366;BME280;33105;47.964;7.982;2023-09-07T07:53:49;96940.56;;;19.35;83.32
47366;BME280;33105;47.964;7.982;2023-09-07T07:56:52;96939.66;;;19.62;84.81
47366;BME280;33105;47.964;7.982;2023-09-07T07:59:53;96942.44;;;19.62;82.30
47366;BME280;33105;47.964;7.982;2023-09-07T08:02:55;96943.31;;;19.72;82.32
47366;BME280;33105;47.964;7.982;2023-09-07T08:05:56;96945.59;;;19.69;83.22
47366;BME280;33105;47.964;7.982;2023-09-07T08:08:58;96945.69;;;19.87;84.31
47366;BME280;33105;47.964;7.982;2023-09-07T08:11:59;96946.31;;;19.84;83.13
47366;BME280;33105;47.964;7.982;2023-09-07T08:15:05;96946.97;;;20.43;75.12
47366;BME280;33105;47.964;7.982;2023-09-07T08:18:06;96944.25;;;20.20;76.77
47366;BME280;33105;47.964;7.982;2023-09-07T08:21:08;96949.28;;;19.87;79.28
47366;BME280;33105;47.964;7.982;2023-09-07T08:24:09;96941.16;;;19.91;82.05
47366;BME280;33105;47.964;7.982;2023-09-07T08:27:11;96943.75;;;20.18;80.60
47366;BME280;33105;47.964;7.982;2023-09-07T08:30:17;96945.59;;;20.31;80.33
47366;BME280;33105;47.964;7.982;2023-09-07T08:33:20;96941.47;;;20.51;81.12
47366;BME280;33105;47.964;7.982;2023-09-07T08:36:23;96945.94;;;20.69;76.44
47366;BME280;33105;47.964;7.982;2023-09-07T08:39:25;96943.69;;;20.97;75.36
47366;BME280;33105;47.964;7.982;2023-09-07T08:42:26;96939.69;;;21.21;73.03
47366;BME280;33105;47.964;7.982;2023-09-07T08:45:29;96933.13;;;21.34;71.61
47366;BME280;33105;47.964;7.982;2023-09-07T08:48:31;96938.22;;;21.49;73.94
47366;BME280;33105;47.964;7.982;2023-09-07T08:51:33;96940.78;;;21.02;73.30
47366;BME280;33105;47.964;7.982;2023-09-07T08:54:35;96942.50;;;20.81;74.40
47366;BME280;33105;47.964;7.982;2023-09-07T08:57:37;96936.00;;;20.77;72.06
47366;BME280;33105;47.964;7.982;2023-09-07T09:00:38;96949.13;;;20.54;74.25
47366;BME280;33105;47.964;7.982;2023-09-07T09:03:45;96945.84;;;21.00;74.63
47366;BME280;33105;47.964;7.982;2023-09-07T09:06:46;96943.09;;;21.44;72.10
47366;BME280;33105;47.964;7.982;2023-09-07T09:09:47;96947.63;;;21.14;75.22
47366;BME280;33105;47.964;7.982;2023-09-07T09:12:49;96944.91;;;21.48;74.31
47366;BME280;33105;47.964;7.982;2023-09-07T09:15:50;96943.56;;;21.54;73.49
47366;BME280;33105;47.964;7.982;2023-09-07T09:18:56;96941.47;;;21.25;74.21
47366;BME280;33105;47.964;7.982;2023-09-07T09:21:58;96942.06;;;21.05;76.76
47366;BME280;33105;47.964;7.982;2023-09-07T09:25:03;96959.41;;;21.11;77.24
47366;BME280;33105;47.964;7.982;2023-09-07T09:28:05;96937.19;;;21.19;77.62
47366;BME280;33105;47.964;7.982;2023-09-07T09:31:06;96946.38;;;21.46;75.82
47366;BME280;33105;47.964;7.982;2023-09-07T09:34:13;96945.72;;;21.40;76.59
47366;BME280;33105;47.964;7.982;2023-09-07T09:37:14;96942.75;;;21.62;76.54
47366;BME280;33105;47.964;7.982;2023-09-07T09:40:16;96937.94;;;22.15;73.82
47366;BME280;33105;47.964;7.982;2023-09-07T09:43:20;96939.19;;;22.34;71.82
47366;BME280;33105;47.964;7.982;2023-09-07T09:46:21;96937.25;;;22.26;68.06
47366;BME280;33105;47.964;7.982;2023-09-07T09:49:23;96941.19;;;22.25;72.10
47366;BME280;33105;47.964;7.982;2023-09-07T09:52:24;96935.97;;;22.24;70.60
47366;BME280;33105;47.964;7.982;2023-09-07T09:55:27;96924.41;;;22.81;72.16
47366;BME280;33105;47.964;7.982;2023-09-07T09:58:29;96931.06;;;22.88;73.28
47366;BME280;33105;47.964;7.982;2023-09-07T10:01:37;96917.25;;;23.21;70.21
47366;BME280;33105;47.964;7.982;2023-09-07T10:04:42;96918.06;;;23.42;66.55
47366;BME280;33105;47.964;7.982;2023-09-07T10:07:45;96910.03;;;23.41;69.75
47366;BME280;33105;47.964;7.982;2023-09-07T10:10:47;96914.19;;;23.56;64.70
47366;BME280;33105;47.964;7.982;2023-09-07T10:13:57;96917.91;;;22.97;66.26
47366;BME280;33105;47.964;7.982;2023-09-07T10:16:58;96909.13;;;23.07;69.27
47366;BME280;33105;47.964;7.982;2023-09-07T10:20:05;96907.44;;;22.94;66.29
47366;BME280;33105;47.964;7.982;2023-09-07T10:23:06;96913.41;;;22.84;65.06
47366;BME280;33105;47.964;7.982;2023-09-07T10:26:15;96913.97;;;22.98;63.75
47366;BME280;33105;47.964;7.982;2023-09-07T10:29:17;96902.31;;;23.26;63.31
47366;BME280;33105;47.964;7.982;2023-09-07T10:32:20;96899.84;;;23.45;69.06
47366;BME280;33105;47.964;7.982;2023-09-07T10:35:21;96903.97;;;23.39;64.18
47366;BME280;33105;47.964;7.982;2023-09-07T10:38:27;96911.09;;;23.28;64.92
47366;BME280;33105;47.964;7.982;2023-09-07T10:41:39;96907.59;;;23.60;66.95
47366;BME280;33105;47.964;7.982;2023-09-07T10:44:41;96901.91;;;24.02;67.42
47366;BME280;33105;47.964;7.982;2023-09-07T10:47:43;96899.56;;;24.04;64.08
47366;BME280;33105;47.964;7.982;2023-09-07T10:50:45;96903.06;;;24.01;63.62
47366;BME280;33105;47.964;7.982;2023-09-07T10:53:47;96901.78;;;23.98;65.06
47366;BME280;33105;47.964;7.982;2023-09-07T10:56:49;96892.63;;;24.10;61.49
47366;BME280;33105;47.964;7.982;2023-09-07T10:59:51;96890.78;;;24.14;63.87
47366;BME280;33105;47.964;7.982;2023-09-07T11:02:55;96893.66;;;24.05;65.88
47366;BME280;33105;47.964;7.982;2023-09-07T11:06:09;96892.44;;;24.27;63.90
47366;BME280;33105;47.964;7.982;2023-09-07T11:09:11;96888.41;;;24.04;63.08
47366;BME280;33105;47.964;7.982;2023-09-07T11:12:13;96881.88;;;24.45;65.43
47366;BME280;33105;47.964;7.982;2023-09-07T11:15:18;96883.63;;;24.50;66.91
47366;BME280;33105;47.964;7.982;2023-09-07T11:18:20;96876.75;;;24.35;65.20
47366;BME280;33105;47.964;7.982;2023-09-07T11:21:25;96883.25;;;24.27;66.38
47366;BME280;33105;47.964;7.982;2023-09-07T11:24:26;96874.06;;;24.51;66.74
47366;BME280;33105;47.964;7.982;2023-09-07T11:27:34;96871.41;;;24.42;64.31
47366;BME280;33105;47.964;7.982;2023-09-07T11:30:35;96864.66;;;24.43;62.08
47366;BME280;33105;47.964;7.982;2023-09-07T11:33:36;96859.97;;;24.84;61.46
47366;BME280;33105;47.964;7.982;2023-09-07T11:36:39;96863.53;;;25.08;65.58
47366;BME280;33105;47.964;7.982;2023-09-07T11:39:40;96865.81;;;25.31;60.67
47366;BME280;33105;47.964;7.982;2023-09-07T11:42:41;96865.25;;;25.53;61.23
47366;BME280;33105;47.964;7.982;2023-09-07T11:45:44;96870.25;;;25.60;61.83
47366;BME280;33105;47.964;7.982;2023-09-07T11:48:45;96870.66;;;25.46;59.32
47366;BME280;33105;47.964;7.982;2023-09-07T11:51:47;96867.19;;;25.37;62.18
47366;BME280;33105;47.964;7.982;2023-09-07T11:54:48;96858.22;;;25.31;61.07
47366;BME280;33105;47.964;7.982;2023-09-07T11:57:50;96861.91;;;25.20;57.53
47366;BME280;33105;47.964;7.982;2023-09-07T12:00:52;96861.53;;;25.49;60.74
47366;BME280;33105;47.964;7.982;2023-09-07T12:03:54;96853.09;;;25.61;58.43
47366;BME280;33105;47.964;7.982;2023-09-07T12:06:55;96857.31;;;25.67;59.27
47366;BME280;33105;47.964;7.982;2023-09-07T12:09:56;96856.00;;;25.93;61.46
47366;BME280;33105;47.964;7.982;2023-09-07T12:12:58;96849.09;;;25.74;57.91
47366;BME280;33105;47.964;7.982;2023-09-07T12:15:59;96850.78;;;25.63;60.60
47366;BME280;33105;47.964;7.982;2023-09-07T12:19:03;96850.19;;;25.86;57.56
47366;BME280;33105;47.964;7.982;2023-09-07T12:22:04;96846.25;;;26.18;57.39
47366;BME280;33105;47.964;7.982;2023-09-07T12:25:05;96845.00;;;26.16;58.71
47366;BME280;33105;47.964;7.982;2023-09-07T12:28:11;96845.88;;;26.04;62.89
47366;BME280;33105;47.964;7.982;2023-09-07T12:31:12;96837.25;;;26.40;60.20
47366;BME280;33105;47.964;7.982;2023-09-07T12:34:15;96849.31;;;26.13;60.34
47366;BME280;33105;47.964;7.982;2023-09-07T12:37:16;96834.25;;;26.33;57.21
47366;BME280;33105;47.964;7.982;2023-09-07T12:40:18;96835.44;;;26.32;57.18
47366;BME280;33105;47.964;7.982;2023-09-07T12:43:19;96834.34;;;26.21;59.87
47366;BME280;33105;47.964;7.982;2023-09-07T12:46:20;96844.16;;;25.99;58.30
47366;BME280;33105;47.964;7.982;2023-09-07T12:49:21;96841.09;;;25.89;56.85
47366;BME280;33105;47.964;7.982;2023-09-07T12:52:23;96832.88;;;25.96;56.51
47366;BME280;33105;47.964;7.982;2023-09-07T12:55:24;96836.84;;;26.10;61.67
47366;BME280;33105;47.964;7.982;2023-09-07T12:58:25;96840.81;;;26.25;58.82
47366;BME280;33105;47.964;7.982;2023-09-07T13:01:26;96832.53;;;26.13;57.63
47366;BME280;33105;47.964;7.982;2023-09-07T13:04:27;96832.69;;;26.04;58.19
47366;BME280;33105;47.964;7.982;2023-09-07T13:07:29;96838.13;;;26.29;60.75
47366;BME280;33105;47.964;7.982;2023-09-07T13:10:30;96825.88;;;26.84;57.49
47366;BME280;33105;47.964;7.982;2023-09-07T13:13:31;96832.91;;;26.94;59.19
47366;BME280;33105;47.964;7.982;2023-09-07T13:16:32;96831.41;;;27.16;56.44
47366;BME280;33105;47.964;7.982;2023-09-07T13:19:33;96822.97;;;26.81;58.40
47366;BME280;33105;47.964;7.982;2023-09-07T13:22:34;96822.34;;;26.87;59.58
47366;BME280;33105;47.964;7.982;2023-09-07T13:25:35;96819.31;;;26.61;55.96
47366;BME280;33105;47.964;7.982;2023-09-07T13:28:37;96818.81;;;26.39;55.91
47366;BME280;33105;47.964;7.982;2023-09-07T13:31:38;96816.72;;;26.52;58.21
47366;BME280;33105;47.964;7.982;2023-09-07T13:34:39;96815.16;;;26.55;57.84
47366;BME280;33105;47.964;7.982;2023-09-07T13:37:40;96809.41;;;26.48;57.19
47366;BME280;33105;47.964;7.982;2023-09-07T13:40:41;96804.59;;;26.48;56.14
47366;BME280;33105;47.964;7.982;2023-09-07T13:43:42;96810.88;;;26.41;55.19
47366;BME280;33105;47.964;7.982;2023-09-07T13:46:44;96807.56;;;26.55;55.26
47366;BME280;33105;47.964;7.982;2023-09-07T13:49:45;96809.97;;;26.37;55.38
47366;BME280;33105;47.964;7.982;2023-09-07T13:52:47;96804.91;;;26.43;55.20
47366;BME280;33105;47.964;7.982;2023-09-07T13:55:48;96811.09;;;26.52;58.52
47366;BME280;33105;47.964;7.982;2023-09-07T13:58:50;96806.75;;;26.70;56.79
47366;BME280;33105;47.964;7.982;2023-09-07T14:01:52;96813.88;;;26.68;57.40
47366;BME280;33105;47.964;7.982;2023-09-07T14:04:53;96804.75;;;26.71;56.19
47366;BME280;33105;47.964;7.982;2023-09-07T14:07:54;96805.94;;;26.70;54.66
47366;BME280;33105;47.964;7.982;2023-09-07T14:10:55;96803.00;;;26.82;53.61
47366;BME280;33105;47.964;7.982;2023-09-07T14:13:56;96800.59;;;26.65;54.75
47366;BME280;33105;47.964;7.982;2023-09-07T14:16:57;96796.84;;;27.12;55.93
47366;BME280;33105;47.964;7.982;2023-09-07T14:20:00;96808.44;;;27.29;53.96
47366;BME280;33105;47.964;7.982;2023-09-07T14:23:02;96804.38;;;27.07;55.35
47366;BME280;33105;47.964;7.982;2023-09-07T14:26:03;96803.94;;;27.25;54.38
47366;BME280;33105;47.964;7.982;2023-09-07T14:29:04;96800.22;;;27.01;56.02
47366;BME280;33105;47.964;7.982;2023-09-07T14:32:06;96805.72;;;27.14;55.76
47366;BME280;33105;47.964;7.982;2023-09-07T14:35:07;96808.53;;;27.14;58.18
47366;BME280;33105;47.964;7.982;2023-09-07T14:38:10;96812.78;;;27.27;54.84
47366;BME280;33105;47.964;7.982;2023-09-07T14:41:11;96803.47;;;27.23;56.33
47366;BME280;33105;47.964;7.982;2023-09-07T14:44:20;96809.84;;;27.39;54.11
47366;BME280;33105;47.964;7.982;2023-09-07T14:47:21;96811.91;;;27.42;55.21
47366;BME280;33105;47.964;7.982;2023-09-07T14:50:26;96807.50;;;27.22;57.61
47366;BME280;33105;47.964;7.982;2023-09-07T14:53:27;96813.41;;;27.17;56.16
47366;BME280;33105;47.964;7.982;2023-09-07T14:56:28;96808.53;;;27.14;55.13
47366;BME280;33105;47.964;7.982;2023-09-07T14:59:30;96802.72;;;26.87;56.87
47366;BME280;33105;47.964;7.982;2023-09-07T15:02:31;96802.09;;;26.78;58.02
47366;BME280;33105;47.964;7.982;2023-09-07T15:05:32;96805.69;;;26.94;56.71
47366;BME280;33105;47.964;7.982;2023-09-07T15:08:33;96797.97;;;27.07;56.54
47366;BME280;33105;47.964;7.982;2023-09-07T15:11:34;96803.59;;;26.91;56.77
47366;BME280;33105;47.964;7.982;2023-09-07T15:14:35;96803.28;;;26.77;59.21
47366;BME280;33105;47.964;7.982;2023-09-07T15:17:38;96790.50;;;26.80;58.57
47366;BME280;33105;47.964;7.982;2023-09-07T15:20:40;96800.31;;;26.70;55.67
47366;BME280;33105;47.964;7.982;2023-09-07T15:23:41;96799.50;;;26.69;57.77
47366;BME280;33105;47.964;7.982;2023-09-07T15:26:44;96799.16;;;26.71;57.28
47366;BME280;33105;47.964;7.982;2023-09-07T15:29:46;96797.56;;;26.73;59.31
47366;BME280;33105;47.964;7.982;2023-09-07T15:32:47;96796.22;;;26.83;56.66
47366;BME280;33105;47.964;7.982;2023-09-07T15:35:48;96791.47;;;26.68;57.37
47366;BME280;33105;47.964;7.982;2023-09-07T15:38:49;96790.22;;;26.50;55.89
47366;BME280;33105;47.964;7.982;2023-09-07T15:41:52;96793.78;;;26.15;58.37
47366;BME280;33105;47.964;7.982;2023-09-07T15:44:54;96788.91;;;26.12;59.83
47366;BME280;33105;47.964;7.982;2023-09-07T15:47:55;96791.31;;;26.29;60.00
47366;BME280;33105;47.964;7.982;2023-09-07T15:50:57;96798.75;;;26.22;59.40
47366;BME280;33105;47.964;7.982;2023-09-07T15:53:58;96792.94;;;25.99;59.92
47366;BME280;33105;47.964;7.982;2023-09-07T15:56:59;96796.03;;;25.94;61.06
47366;BME280;33105;47.964;7.982;2023-09-07T16:00:01;96799.81;;;25.86;60.58
47366;BME280;33105;47.964;7.982;2023-09-07T16:03:02;96797.38;;;25.84;64.16